x

Bw Pioneer Buoy - Walker Ridge 249 (42360) Wave Buoy

10:00pm - Tue 24th Jan 2017 All times are UTC.

  • Sig Wave height 2.3ft
  • Peak Period 5s
  • Wind
    11mph, 13mph gusts
  • Sea Temp 74°f
  • Air Temp 72°f
  • Sea Pressure 1012.4mb

More Historic Weather Station data

Upgrade to MSW Pro to gain access to the past 30 days of data for over 8000 Wavebouys and Weather Stations around the globe.

Join Pro

Comparision Forecast

View Surf forecast
   
Tue 01/24 10:00pm 2.5ft 5s 11 13 mph 1012.4mb 74f 72f
9:00pm 2.5ft 6s 11 13 mph 1012.6mb 74f 71f
8:00pm 2.5ft 6s 11 13 mph 1012.8mb 74f 71f
7:00pm 2.5ft 6s 11 13 mph 1013.3mb 74f 71f
6:00pm 2.5ft 6s 9
mph
1014.5mb 74f 71f
5:00pm 2.5ft 7s 7
mph
1015.5mb 74f 71f
4:00pm 3.5ft 6s 4 7 mph 1015.8mb 74f 69f
3:00pm 3.5ft 6s 2 4 mph 1015mb 74f 70f
2:00pm 3.5ft 7s 2
mph
1014.5mb 73f 70f
1:00pm 3.5ft 7s 4
mph
1013.8mb 73f 69f
12:00pm 3.5ft 7s 4 7 mph 1013.3mb 73f 69f
11:00am 4.5ft 7s 7 9 mph 1013.1mb 74f 69f
10:00am 4.5ft 7s 9 11 mph 1012.8mb 74f 69f
9:00am 5ft 8s 9 11 mph 1012.8mb 74f 69f
8:00am 5ft 8s 9 13 mph 1012.8mb 74f 69f
7:00am 5ft 8s 11 13 mph 1013.1mb 74f 69f
6:00am 6ft 7s 13 16 mph 1013.3mb 74f 69f
5:00am 7ft 8s 16 18 mph 1013.8mb 74f 69f
4:00am 7.5ft 8s 16 18 mph 1013.8mb 74f 69f
3:00am 7ft 8s 18 22 mph 1013.8mb 74f 69f
2:00am 7.5ft 8s 18 20 mph 1013.6mb 74f 69f
1:00am 8ft 9s 20 22 mph 1013.1mb 74f 69f
12:00am 9ft 9s 20 25 mph 1012.8mb 74f 68f
Mon 01/23 11:00pm 10ft 9s 20 22 mph 1012.1mb 74f 68f
10:00pm 10ft 9s 22 25 mph 1011.9mb 74f 68f
9:00pm 11ft 10s 22 27 mph 1012.1mb 74f 68f
8:00pm 11ft 9s 27 29 mph 1012.1mb 74f 68f
7:00pm 12ft 11s 25 29 mph 1012.4mb 74f 67f
6:00pm 13.5ft 10s 25 29 mph 1013.1mb 74f 67f
5:00pm 13ft 11s 29 31 mph 1013.8mb 74f 67f
4:00pm 15.5ft 10s 29 34 mph 1013.6mb 74f 67f
3:00pm 13ft 11s 29 31 mph 1013.1mb 74f 67f
2:00pm 15ft 11s 29 31 mph 1011.6mb 74f 67f
1:00pm 16.5ft 10s 31 38 mph 1010.9mb 74f 67f
12:00pm 15ft 12s 31 38 mph 1010.4mb 74f 68f
11:00am 15.5ft 11s 34 40 mph 1009.4mb 74f 68f
10:00am 17ft 11s 31 34 mph 1008.9mb 74f 68f
9:00am 17.5ft 12s 31 36 mph 1008.7mb 74f 69f
8:00am 17.5ft 11s 36 40 mph 1008.9mb 74f 69f
7:00am 18.5ft 12s 34 43 mph 1008.7mb 75f 69f
6:00am 19ft 11s 38 47 mph 1008.7mb 75f 69f
5:00am 18ft 11s 34 43 mph 1008mb 75f 71f
4:00am 16.5ft 11s 34 40 mph 1007.7mb 75f 71f
3:00am 16.5ft 11s 34 36 mph 1007.2mb 74f 71f
2:00am 15.5ft 10s 34 36 mph 1006.7mb 74f 71f
1:00am 16.5ft 10s 36 40 mph 1005.8mb 74f 71f
12:00am 16ft 9s 34 38 mph 1004.8mb 74f 71f
Sun 01/22 11:00pm 14.5ft 9s 38 47 mph 1004mb 74f 71f
10:00pm 14ft 8s 38 51 mph 1003.1mb 75f 72f
9:00pm 14ft 8s 38 43 mph 1002.3mb 75f 72f
8:00pm 12.5ft 8s 34 36 mph 1002.3mb 75f 72f
7:00pm 11ft 8s 34 36 mph 1002.8mb 75f 72f
6:00pm 8.5ft 7s 36 45 mph 1003.8mb 75f 73f
5:00pm 6.5ft 7s 34 38 mph 1004.3mb 75f 74f
4:00pm 6ft 8s 29 34 mph 1004mb 75f 73f
3:00pm 7ft 8s 36 40 mph 1002.8mb 75f 72f
2:00pm 6ft 8s 25 27 mph 1000.9mb 75f 76f
1:00pm 6.5ft 8s 16 18 mph 1000.9mb 75f 74f
12:00pm 7ft 8s 16 20 mph 999.9mb 75f 74f
11:00am 7ft 8s 18
mph
1000.4mb 75f 75f
10:00am 6.5ft 8s 20 25 mph 1000.4mb 75f 75f
9:00am 7ft 8s 22 25 mph 1000.1mb 75f 75f
8:00am 7ft 7s 25 27 mph 1000.6mb 75f 75f
7:00am 7ft 8s 18 22 mph 1001.4mb 75f 75f
6:00am 8ft 8s 20 25 mph 1001.9mb 75f 75f
5:00am 8ft 8s 20 22 mph 1003.1mb 75f 75f
4:00am 7ft 8s 22 25 mph 1002.8mb 75f 75f
3:00am 8ft 8s 22 25 mph 1002.3mb 75f 75f
2:00am 7.5ft 8s 25 29 mph 1002.6mb 75f 76f
1:00am 8ft 8s 25 27 mph 1002.1mb 75f 75f
12:00am 8ft 7s 25 27 mph 1001.9mb 75f 76f
Sat 01/21 11:00pm 8ft 8s 22 27 mph 1002.3mb 75f 76f
10:00pm 7ft 8s 25
mph
1002.6mb 75f 76f
9:00pm 7ft 8s 25 29 mph 1003.3mb 75f 76f
8:00pm 7ft 7s 22 25 mph 1004.3mb 75f 75f
7:00pm 6ft 7s 22 25 mph 1005mb 75f 75f
6:00pm 6.5ft 7s 22
mph
1006.5mb 75f 75f
5:00pm 6ft 7s 20 22 mph 1007.7mb 75f 76f
4:00pm 6ft 7s 22 25 mph 1007.7mb 75f 76f
3:00pm 6.5ft 7s 22
mph
1007.7mb 75f 76f
2:00pm 6ft 7s 20 25 mph 1007.7mb 75f 75f
1:00pm 5.5ft 6s 20 22 mph 1007mb 75f 75f
12:00pm 5ft 7s 20 22 mph 1006.7mb 75f 75f
11:00am 5ft 6s 22 25 mph 1006.5mb 75f 76f
10:00am 5.5ft 7s 20 22 mph 1007.2mb 75f 75f
9:00am 5ft 6s 20 22 mph 1007.5mb 75f 75f
8:00am 5ft 6s 25 27 mph 1007.7mb 75f 75f
7:00am 5ft 7s 22 25 mph 1008mb 75f 75f
6:00am 4.5ft 7s 20 22 mph 1008.9mb 75f 75f
5:00am 5ft 7s 22
mph
1008.9mb 75f 75f
4:00am 4.5ft 7s 20 22 mph 1009.4mb 75f 75f
3:00am 4.5ft 6s 18 20 mph 1009.9mb 75f 75f
2:00am 4.5ft 6s 20 22 mph 1009.7mb 75f 75f
1:00am 4.5ft 6s 18 20 mph 1009.4mb 75f 75f
12:00am 4ft 5s 16
mph
1009.4mb 75f 75f